Time;durP1;ratioP1;P1;durP2;ratioP2;P2;SDS_P1;SDS_P2;PMS_P1;PMS_P2;Temp;Humidity;BMP_temperature;BMP_pressure;BME280_temperature;BME280_humidity;BME280_pressure;Samples;Min_cycle;Max_cycle;Signal;HPM_P1;HPM_P2
2023/03/08 00:01:34;;;;;;;5.03;0.90;;;4.30;98.40;;;;;;5010209;28;20500;-62
2023/03/08 00:04:00;;;;;;;2.67;0.85;;;4.20;75.60;;;;;;5010017;28;20435;-62
2023/03/08 00:06:26;;;;;;;1.75;0.75;;;4.00;58.60;;;;;;5010638;28;20044;-62
2023/03/08 00:08:57;;;;;;;4.18;0.75;;;4.00;55.40;;;;;;5011214;28;20041;-62
2023/03/08 00:11:23;;;;;;;7.80;1.05;;;3.90;61.50;;;;;;5010563;28;20488;-62
2023/03/08 00:13:49;;;;;;;4.00;1.23;;;4.00;69.40;;;;;;5011098;28;20073;-62
2023/03/08 00:16:15;;;;;;;4.47;0.90;;;3.90;75.70;;;;;;5011151;28;20334;-62
2023/03/08 00:18:41;;;;;;;3.85;0.85;;;3.90;74.90;;;;;;5010848;28;20099;-62
2023/03/08 00:21:13;;;;;;;2.15;0.93;;;3.90;69.30;;;;;;5024435;28;20404;-62
2023/03/08 00:23:39;;;;;;;5.25;1.30;;;3.80;61.80;;;;;;5011149;28;20411;-62
2023/03/08 00:26:05;;;;;;;4.90;1.15;;;3.80;59.10;;;;;;5010830;28;20096;-62
2023/03/08 00:28:31;;;;;;;2.17;0.77;;;3.90;59.70;;;;;;5010587;28;20030;-62
2023/03/08 00:31:09;;;;;;;3.67;1.10;;;3.80;61.80;;;;;;5009487;28;20030;-62
2023/03/08 00:33:35;;;;;;;6.00;1.23;;;3.80;54.50;;;;;;5010852;28;20075;-62
2023/03/08 00:36:07;;;;;;;4.60;0.90;;;3.90;53.10;;;;;;5010999;28;20041;-62
2023/03/08 00:38:35;;;;;;;3.42;1.00;;;3.80;50.20;;;;;;5010844;28;20038;-62
2023/03/08 00:41:02;;;;;;;4.25;0.98;;;4.00;52.20;;;;;;5009279;28;20428;-62
2023/03/08 00:43:28;;;;;;;2.97;1.48;;;3.80;56.60;;;;;;5008863;28;20038;-62
2023/03/08 00:45:54;;;;;;;4.60;1.20;;;3.90;63.70;;;;;;5009839;28;20124;-62
2023/03/08 00:48:20;;;;;;;5.63;1.13;;;3.80;72.10;;;;;;5010745;28;20079;-62
2023/03/08 00:50:45;;;;;;;3.50;1.00;;;3.80;76.60;;;;;;5011003;28;20049;-62
2023/03/08 00:53:11;;;;;;;8.50;1.38;;;3.80;75.50;;;;;;5009390;28;20034;-62
2023/03/08 00:55:37;;;;;;;6.28;1.33;;;4.00;99.90;;;;;;5009347;28;20038;-62
2023/03/08 00:58:03;;;;;;;7.70;1.13;;;4.20;99.90;;;;;;5020680;28;20092;-62
2023/03/08 01:00:30;;;;;;;4.38;1.42;;;3.20;99.90;;;;;;5010369;28;20128;-62
2023/03/08 01:02:56;;;;;;;1.48;0.85;;;2.50;1.00;;;;;;5014060;28;20476;-62
2023/03/08 01:05:23;;;;;;;5.38;1.83;;;4.00;1.00;;;;;;5014012;28;20046;-62
2023/03/08 01:07:48;;;;;;;4.68;1.40;;;4.00;5.20;;;;;;5014540;28;20084;-62
2023/03/08 01:10:14;;;;;;;4.95;1.10;;;3.80;94.80;;;;;;5013843;28;20045;-62
2023/03/08 01:12:40;;;;;;;3.13;1.00;;;2.00;99.90;;;;;;5014391;28;20030;-61
2023/03/08 01:15:06;;;;;;;2.47;1.05;;;3.70;99.90;;;;;;5014417;28;20467;-61
2023/03/08 01:17:31;;;;;;;3.78;0.90;;;2.60;99.90;;;;;;5013896;28;20407;-61
2023/03/08 01:19:57;;;;;;;4.47;1.02;;;3.50;99.90;;;;;;5029521;28;20054;-61
2023/03/08 01:22:23;;;;;;;2.05;1.15;;;1.50;1.00;;;;;;5014442;28;20049;-61
2023/03/08 01:24:49;;;;;;;5.22;0.90;;;1.80;1.00;;;;;;5013886;28;20510;-61
2023/03/08 01:27:16;;;;;;;0.90;0.90;;;1.60;1.00;;;;;;5013590;28;20086;-61
2023/03/08 01:29:42;;;;;;;3.15;0.90;;;2.60;1.00;;;;;;5014235;28;20061;-61
2023/03/08 01:32:09;;;;;;;4.10;1.00;;;2.30;1.00;;;;;;5014385;28;20041;-61
2023/03/08 01:34:36;;;;;;;6.10;1.20;;;3.20;2.30;;;;;;5012665;28;20073;-61
2023/03/08 01:37:02;;;;;;;3.70;1.10;;;2.00;56.70;;;;;;5014057;28;20034;-61
2023/03/08 01:39:27;;;;;;;5.22;1.20;;;2.60;99.90;;;;;;5012371;28;20088;-62
2023/03/08 01:41:53;;;;;;;1.05;0.80;;;1.90;99.90;;;;;;5013872;28;20042;-61
2023/03/08 01:44:21;;;;;;;0.85;0.70;;;2.20;99.90;;;;;;5013935;28;20041;-61
2023/03/08 01:46:47;;;;;;;2.08;0.90;;;2.40;99.90;;;;;;5012543;28;20105;-61
2023/03/08 01:49:25;;;;;;;4.20;1.05;;;2.10;99.90;;;;;;5014475;28;20066;-61
2023/03/08 01:52:02;;;;;;;1.15;0.80;;;2.90;99.90;;;;;;5014112;28;20450;-61
2023/03/08 01:54:32;;;;;;;2.42;0.93;;;2.60;99.90;;;;;;5013128;28;20050;-61
2023/03/08 01:57:03;;;;;;;4.35;1.05;;;2.10;99.90;;;;;;5013097;28;20041;-61
2023/03/08 01:59:32;;;;;;;3.00;0.82;;;2.50;99.90;;;;;;5013909;28;20042;-61
2023/03/08 02:01:58;;;;;;;1.27;0.70;;;1.70;99.90;;;;;;5013329;28;20042;-61
2023/03/08 02:04:25;;;;;;;3.78;0.88;;;1.90;99.90;;;;;;5013653;28;20077;-61
2023/03/08 02:06:51;;;;;;;5.28;1.13;;;2.30;99.90;;;;;;5026997;28;20081;-61
2023/03/08 02:09:16;;;;;;;2.13;0.80;;;2.10;99.90;;;;;;5012474;28;20034;-61
2023/03/08 02:11:43;;;;;;;2.47;0.73;;;2.80;99.90;;;;;;5013009;28;20041;-61
2023/03/08 02:14:09;;;;;;;1.65;0.82;;;1.90;99.90;;;;;;5012585;28;20045;-61
2023/03/08 02:16:34;;;;;;;4.85;1.42;;;2.80;99.90;;;;;;5012808;28;20058;-61
2023/03/08 02:19:04;;;;;;;3.10;1.00;;;2.00;99.90;;;;;;5028451;28;20081;-61
2023/03/08 02:21:31;;;;;;;4.20;1.00;;;2.60;99.90;;;;;;5012497;28;20515;-62
2023/03/08 02:24:06;;;;;;;2.75;0.90;;;2.50;99.90;;;;;;5012662;28;20038;-61
2023/03/08 02:26:34;;;;;;;1.10;0.80;;;2.90;99.90;;;;;;5011628;28;20034;-61
2023/03/08 02:28:59;;;;;;;1.40;0.65;;;1.90;99.90;;;;;;4993534;28;20046;-61
2023/03/08 02:31:25;;;;;;;3.38;0.88;;;2.40;99.90;;;;;;4993370;28;20049;-61
2023/03/08 02:33:50;;;;;;;2.53;0.80;;;2.40;99.90;;;;;;5011526;28;20030;-61
2023/03/08 02:36:16;;;;;;;7.88;1.17;;;2.90;99.90;;;;;;5011562;28;20045;-61
2023/03/08 02:38:42;;;;;;;5.97;1.00;;;2.80;99.90;;;;;;5012585;28;20069;-61
2023/03/08 02:41:07;;;;;;;3.20;1.15;;;2.80;99.90;;;;;;5028197;28;20079;-61
2023/03/08 02:43:33;;;;;;;1.27;0.70;;;2.10;99.90;;;;;;5011298;28;20053;-61
2023/03/08 02:45:59;;;;;;;4.07;0.90;;;2.50;99.90;;;;;;5028072;28;20048;-61
2023/03/08 02:48:24;;;;;;;3.35;0.77;;;3.00;99.90;;;;;;5011173;28;20064;-61
2023/03/08 02:50:50;;;;;;;1.65;0.85;;;2.30;99.90;;;;;;5011945;28;20111;-61
2023/03/08 02:53:15;;;;;;;2.42;1.00;;;2.50;99.90;;;;;;5012267;28;20053;-61
2023/03/08 02:55:41;;;;;;;4.18;1.05;;;2.30;99.90;;;;;;5010853;28;20108;-61
2023/03/08 02:58:08;;;;;;;2.55;0.98;;;2.90;99.90;;;;;;5011880;28;20042;-61
2023/03/08 03:00:33;;;;;;;1.95;0.80;;;2.50;99.90;;;;;;5012642;28;20125;-61
2023/03/08 03:02:59;;;;;;;2.67;1.05;;;2.20;99.90;;;;;;5010641;28;20140;-61
2023/03/08 03:05:25;;;;;;;4.97;1.25;;;2.50;99.90;;;;;;5010460;28;20049;-61
2023/03/08 03:07:51;;;;;;;4.72;1.30;;;2.70;92.90;;;;;;5011629;28;20038;-61
2023/03/08 03:10:17;;;;;;;2.35;1.08;;;2.50;71.80;;;;;;5012157;28;20120;-61
2023/03/08 03:12:45;;;;;;;1.15;0.77;;;2.80;51.00;;;;;;5012282;28;20366;-61
2023/03/08 03:15:11;;;;;;;5.30;1.65;;;2.20;38.60;;;;;;5012272;28;20038;-61
2023/03/08 03:17:36;;;;;;;6.90;1.50;;;2.90;27.80;;;;;;5011178;28;20493;-61
2023/03/08 03:20:08;;;;;;;4.72;1.00;;;2.50;16.00;;;;;;5011110;28;20092;-61
2023/03/08 03:22:34;;;;;;;4.88;1.17;;;2.60;4.70;;;;;;5011622;28;20116;-61
2023/03/08 03:24:59;;;;;;;3.60;1.10;;;2.40;1.00;;;;;;5011163;28;20038;-61
2023/03/08 03:27:25;;;;;;;6.18;1.70;;;1.40;1.00;;;;;;5012050;28;20042;-61
2023/03/08 03:29:51;;;;;;;4.03;0.98;;;2.70;1.00;;;;;;5010698;28;20492;-61
2023/03/08 03:32:16;;;;;;;2.05;0.95;;;2.80;1.00;;;;;;5011611;28;20034;-61
2023/03/08 03:34:42;;;;;;;2.03;1.00;;;2.30;1.00;;;;;;5011509;28;20458;-61
2023/03/08 03:37:07;;;;;;;4.53;1.15;;;3.00;1.00;;;;;;5010850;28;20387;-61
2023/03/08 03:39:37;;;;;;;1.73;0.95;;;2.30;1.00;;;;;;5009255;28;20038;-61
2023/03/08 03:42:04;;;;;;;7.40;1.15;;;2.40;1.00;;;;;;5012085;28;20586;-61
2023/03/08 03:44:30;;;;;;;3.60;0.93;;;2.50;1.00;;;;;;5010841;28;20045;-61
2023/03/08 03:46:56;;;;;;;7.07;1.13;;;2.30;1.00;;;;;;5011593;28;20526;-61
2023/03/08 03:49:22;;;;;;;6.68;1.00;;;3.00;1.00;;;;;;5009980;28;20101;-61
2023/03/08 03:51:47;;;;;;;4.70;0.90;;;3.00;1.00;;;;;;5011155;28;20648;-61
2023/03/08 03:54:13;;;;;;;6.43;1.42;;;2.30;1.00;;;;;;5010956;28;20037;-61
2023/03/08 03:56:38;;;;;;;4.75;1.20;;;2.30;1.00;;;;;;5010980;28;20128;-61
2023/03/08 03:59:04;;;;;;;2.42;1.17;;;2.90;1.00;;;;;;5010134;28;20033;-61
2023/03/08 04:01:30;;;;;;;3.50;1.00;;;2.80;1.00;;;;;;5011418;28;20042;-61
2023/03/08 04:03:56;;;;;;;5.32;1.33;;;2.20;99.90;;;;;;5011150;28;20088;-61
2023/03/08 04:06:30;;;;;;;2.33;0.98;;;2.70;99.90;;;;;;5011164;28;20040;-61
2023/03/08 04:09:02;;;;;;;2.03;1.08;;;2.60;99.90;;;;;;5008630;28;20558;-61
2023/03/08 04:11:31;;;;;;;7.78;1.38;;;2.50;99.90;;;;;;5011490;28;20038;-61
2023/03/08 04:13:57;;;;;;;4.65;1.10;;;2.00;99.90;;;;;;5011268;28;20088;-61
2023/03/08 04:16:25;;;;;;;2.97;0.88;;;2.00;99.90;;;;;;5011448;28;20519;-61
2023/03/08 04:18:55;;;;;;;4.68;0.90;;;1.60;99.90;;;;;;5009370;28;20029;-61
2023/03/08 04:21:21;;;;;;;0.95;0.80;;;1.80;99.90;;;;;;5010866;28;20046;-61
2023/03/08 04:23:47;;;;;;;2.65;1.02;;;1.40;99.90;;;;;;5009214;28;20046;-61
2023/03/08 04:26:12;;;;;;;2.35;1.00;;;2.00;99.90;;;;;;5011313;28;20041;-61
2023/03/08 04:28:40;;;;;;;1.35;0.90;;;2.00;99.90;;;;;;5010452;28;20145;-61
2023/03/08 04:31:24;;;;;;;2.65;1.08;;;1.30;99.90;;;;;;5009111;28;20038;-61
2023/03/08 04:33:50;;;;;;;1.60;1.02;;;1.70;99.90;;;;;;5010754;28;20041;-61
2023/03/08 04:36:16;;;;;;;4.68;0.88;;;1.00;99.90;;;;;;5022246;28;20065;-61
2023/03/08 04:38:44;;;;;;;362.25;9.73;;;1.10;99.90;;;;;;5001117;28;20046;-61
2023/03/08 04:41:13;;;;;;;3.83;0.98;;;1.70;99.90;;;;;;5008714;28;20045;-61
2023/03/08 04:43:42;;;;;;;5.88;0.90;;;1.60;99.90;;;;;;5010736;28;20139;-61
2023/03/08 04:46:08;;;;;;;5.10;1.00;;;1.00;99.90;;;;;;5010939;28;20049;-61
2023/03/08 04:48:34;;;;;;;1.85;0.70;;;0.80;99.90;;;;;;5010770;28;20037;-61
2023/03/08 04:51:01;;;;;;;6.80;1.25;;;0.90;99.90;;;;;;5008099;28;20077;-61
2023/03/08 04:53:28;;;;;;;3.38;1.15;;;1.10;99.90;;;;;;5010084;28;20562;-61
2023/03/08 04:55:54;;;;;;;2.90;0.88;;;1.40;99.90;;;;;;5011265;28;20124;-61
2023/03/08 04:58:20;;;;;;;1.75;0.90;;;1.70;99.90;;;;;;5011009;28;20126;-61
2023/03/08 05:00:45;;;;;;;5.47;0.90;;;1.60;99.90;;;;;;5010248;28;20061;-61
2023/03/08 05:03:12;;;;;;;2.22;0.95;;;1.40;99.90;;;;;;5010349;28;20069;-61
2023/03/08 05:05:47;;;;;;;2.28;1.00;;;1.20;99.90;;;;;;5010696;28;20113;-61
2023/03/08 05:08:13;;;;;;;5.13;1.00;;;1.60;99.90;;;;;;5009885;28;20040;-61
2023/03/08 05:10:39;;;;;;;2.78;1.08;;;1.50;99.90;;;;;;5010261;28;20394;-61
2023/03/08 05:13:04;;;;;;;27.73;1.70;;;1.10;99.90;;;;;;5010007;28;20030;-61
2023/03/08 05:15:30;;;;;;;5.03;0.90;;;0.90;99.90;;;;;;5024978;28;20508;-61
2023/03/08 05:17:55;;;;;;;1.27;0.90;;;0.90;99.90;;;;;;4993074;28;20074;-60
2023/03/08 05:20:21;;;;;;;3.85;0.93;;;0.50;99.90;;;;;;5010397;28;20054;-60
2023/03/08 05:22:46;;;;;;;2.15;1.13;;;0.70;99.90;;;;;;5009975;28;20492;-61
2023/03/08 05:25:13;;;;;;;1.67;1.08;;;0.60;99.90;;;;;;5009422;28;20064;-61
2023/03/08 05:27:38;;;;;;;2.33;0.90;;;0.90;99.90;;;;;;5010652;28;20516;-61
2023/03/08 05:30:05;;;;;;;1.92;1.00;;;0.90;99.90;;;;;;5010475;28;20072;-61
2023/03/08 05:32:31;;;;;;;3.63;1.08;;;1.20;99.90;;;;;;5008824;28;20034;-61
2023/03/08 05:34:56;;;;;;;3.13;1.00;;;1.30;99.90;;;;;;5010293;28;20042;-61
2023/03/08 05:37:24;;;;;;;2.00;1.00;;;1.20;99.90;;;;;;5010079;28;20045;-61
2023/03/08 05:39:51;;;;;;;1.10;0.85;;;1.40;1.00;;;;;;5007940;28;20046;-60
2023/03/08 05:42:17;;;;;;;4.03;1.10;;;1.20;1.00;;;;;;5009820;28;20041;-60
2023/03/08 05:44:42;;;;;;;3.75;1.00;;;1.30;1.00;;;;;;5010212;28;20069;-61
2023/03/08 05:47:08;;;;;;;1.45;0.95;;;1.20;99.90;;;;;;5010392;28;20050;-60
2023/03/08 05:49:33;;;;;;;18.35;1.25;;;1.10;99.90;;;;;;5013503;28;20041;-60
2023/03/08 05:51:59;;;;;;;1.83;1.00;;;0.80;99.90;;;;;;5012340;28;20042;-61
2023/03/08 05:54:24;;;;;;;3.08;0.95;;;1.00;99.90;;;;;;5028604;28;20046;-61
2023/03/08 05:56:50;;;;;;;1.40;1.00;;;0.80;1.00;;;;;;5013356;28;20038;-61
2023/03/08 05:59:15;;;;;;;1.42;1.20;;;0.60;1.00;;;;;;5012081;28;20038;-61
2023/03/08 06:01:41;;;;;;;7.32;2.00;;;1.10;1.00;;;;;;5013419;28;20034;-61
2023/03/08 06:04:07;;;;;;;3.53;1.67;;;0.40;1.00;;;;;;5013395;28;20120;-60
2023/03/08 06:06:32;;;;;;;6.90;1.30;;;1.30;1.00;;;;;;5013406;28;20132;-61
2023/03/08 06:08:58;;;;;;;1.27;1.17;;;0.00;1.00;;;;;;5012511;28;20053;-60
2023/03/08 06:11:24;;;;;;;3.58;1.50;;;0.30;1.00;;;;;;5012497;28;20045;-60
2023/03/08 06:13:49;;;;;;;3.33;1.30;;;1.20;1.00;;;;;;5013071;28;20113;-60
2023/03/08 06:16:15;;;;;;;3.67;1.58;;;1.00;1.00;;;;;;5012854;28;20191;-60
2023/03/08 06:18:42;;;;;;;4.55;1.65;;;1.60;34.30;;;;;;5011889;28;20532;-61
2023/03/08 06:21:12;;;;;;;5.15;2.30;;;1.50;81.60;;;;;;5012804;28;20125;-61
2023/03/08 06:23:37;;;;;;;3.00;1.58;;;0.90;96.80;;;;;;5013030;28;20034;-61
2023/03/08 06:26:04;;;;;;;6.70;2.20;;;1.70;99.90;;;;;;5012702;28;20057;-61
2023/03/08 06:28:31;;;;;;;2.65;1.30;;;0.80;99.90;;;;;;5011534;28;20073;-61
2023/03/08 06:30:57;;;;;;;3.90;1.60;;;1.80;99.90;;;;;;5013050;28;20041;-63
2023/03/08 06:33:25;;;;;;;7.65;1.40;;;1.00;99.90;;;;;;5012632;28;20041;-61
2023/03/08 06:36:00;;;;;;;4.00;1.60;;;1.70;99.90;;;;;;5012487;28;20458;-61
2023/03/08 06:38:27;;;;;;;5.82;1.40;;;1.80;99.90;;;;;;5011059;28;20499;-61
2023/03/08 06:40:52;;;;;;;4.43;1.30;;;0.80;99.90;;;;;;5012988;28;20107;-61
2023/03/08 06:43:18;;;;;;;3.90;1.67;;;1.80;99.90;;;;;;5012648;28;20495;-61
2023/03/08 06:45:44;;;;;;;5.03;1.70;;;1.70;99.90;;;;;;5011872;28;20500;-61
2023/03/08 06:48:09;;;;;;;210.15;10.10;;;1.80;99.90;;;;;;5012323;28;20117;-61
2023/03/08 06:50:35;;;;;;;6.60;1.70;;;1.60;99.90;;;;;;5011082;28;20044;-61
2023/03/08 06:53:01;;;;;;;3.10;1.38;;;1.00;99.90;;;;;;5011687;28;20487;-61
2023/03/08 06:55:26;;;;;;;6.50;1.50;;;1.20;99.90;;;;;;5012486;28;20096;-61
2023/03/08 06:57:54;;;;;;;4.82;1.40;;;1.00;99.90;;;;;;5012640;28;20042;-61
2023/03/08 07:00:21;;;;;;;7.80;1.50;;;2.10;99.90;;;;;;5012046;28;20068;-61
2023/03/08 07:02:47;;;;;;;9.07;1.70;;;2.40;99.90;;;;;;5011173;28;20073;-61
2023/03/08 07:05:14;;;;;;;2.08;1.20;;;1.60;99.90;;;;;;5011489;28;20070;-61
2023/03/08 07:07:41;;;;;;;6.20;1.35;;;1.30;99.90;;;;;;5011557;28;20034;-61
2023/03/08 07:10:09;;;;;;;8.60;1.70;;;2.20;99.90;;;;;;5010645;28;20037;-61
2023/03/08 07:12:39;;;;;;;3.88;1.60;;;0.90;1.00;;;;;;5011265;28;20045;-61
2023/03/08 07:15:06;;;;;;;5.32;2.08;;;1.10;1.00;;;;;;5017180;28;20053;-61
2023/03/08 07:17:33;;;;;;;5.70;1.90;;;1.70;1.00;;;;;;5009421;28;20041;-61
2023/03/08 07:19:59;;;;;;;6.65;2.13;;;2.20;1.00;;;;;;5010648;28;20058;-61
2023/03/08 07:22:24;;;;;;;2.33;1.63;;;1.50;1.00;;;;;;5010684;28;20635;-61
2023/03/08 07:24:50;;;;;;;8.25;2.00;;;1.40;1.00;;;;;;5010852;28;20042;-61
2023/03/08 07:27:16;;;;;;;6.07;1.80;;;1.40;1.00;;;;;;5011834;28;20026;-61
2023/03/08 07:29:41;;;;;;;6.85;1.80;;;2.30;1.00;;;;;;5011676;28;20044;-61
2023/03/08 07:32:07;;;;;;;5.53;1.83;;;2.30;1.00;;;;;;5011989;28;20168;-61
2023/03/08 07:34:32;;;;;;;7.97;1.80;;;2.00;1.00;;;;;;5009646;28;20506;-61
2023/03/08 07:36:58;;;;;;;9.95;1.80;;;1.10;1.00;;;;;;5012049;28;20053;-61
2023/03/08 07:39:24;;;;;;;2.60;1.70;;;1.30;1.00;;;;;;5011732;28;20052;-61
2023/03/08 07:41:49;;;;;;;4.57;1.63;;;1.10;1.00;;;;;;5011070;28;20603;-61
2023/03/08 07:44:15;;;;;;;3.88;1.52;;;2.10;1.00;;;;;;5010389;28;20101;-61
2023/03/08 07:46:40;;;;;;;7.93;1.92;;;1.70;1.00;;;;;;5010694;28;20037;-61
2023/03/08 07:49:09;;;;;;;7.65;2.13;;;2.40;1.00;;;;;;5011647;28;20113;-61
2023/03/08 07:51:35;;;;;;;8.05;2.15;;;1.40;1.00;;;;;;5009570;28;20041;-61
2023/03/08 07:54:01;;;;;;;4.57;1.30;;;1.10;1.00;;;;;;5005972;28;20048;-61
2023/03/08 07:56:27;;;;;;;4.82;1.50;;;1.60;1.00;;;;;;5006113;28;20069;-62
2023/03/08 07:58:56;;;;;;;9.30;1.85;;;2.50;1.00;;;;;;5010658;28;20502;-62
2023/03/08 08:01:22;;;;;;;8.85;1.40;;;2.30;1.00;;;;;;5011327;28;20037;-62
2023/03/08 08:03:48;;;;;;;7.32;1.65;;;2.60;9.90;;;;;;5009505;28;20129;-62
2023/03/08 08:06:14;;;;;;;6.95;1.73;;;2.20;22.40;;;;;;5010944;28;20038;-62
2023/03/08 08:08:40;;;;;;;4.82;1.60;;;1.50;37.80;;;;;;5006793;28;20443;-62
2023/03/08 08:11:13;;;;;;;5.10;1.73;;;2.80;51.30;;;;;;5004634;28;20416;-65
2023/03/08 08:13:39;;;;;;;8.43;1.65;;;1.60;57.50;;;;;;5005304;28;20056;-62
2023/03/08 08:16:06;;;;;;;5.20;1.63;;;2.80;70.90;;;;;;5008828;28;20046;-64
2023/03/08 08:18:32;;;;;;;3.33;1.45;;;2.80;87.60;;;;;;5009406;28;20033;-62
2023/03/08 08:21:00;;;;;;;6.07;1.60;;;2.90;99.90;;;;;;5009057;28;20119;-62
2023/03/08 08:23:26;;;;;;;4.28;1.42;;;3.00;99.90;;;;;;5002870;28;20041;-62
2023/03/08 08:25:52;;;;;;;6.70;1.73;;;3.00;99.90;;;;;;5005056;28;20038;-62
2023/03/08 08:28:18;;;;;;;4.80;1.40;;;2.40;99.90;;;;;;5004381;28;20034;-62
2023/03/08 08:30:43;;;;;;;2.90;1.50;;;3.10;99.90;;;;;;5010340;28;20036;-62
2023/03/08 08:33:09;;;;;;;7.72;1.60;;;2.00;99.90;;;;;;5009307;28;20087;-62
2023/03/08 08:35:38;;;;;;;9.15;1.88;;;2.10;99.90;;;;;;5008187;28;20124;-59
2023/03/08 08:38:03;;;;;;;3.75;1.50;;;3.20;99.90;;;;;;5008343;28;20113;-61
2023/03/08 08:40:29;;;;;;;4.85;1.55;;;3.30;99.90;;;;;;5005843;28;20129;-61
2023/03/08 08:42:55;;;;;;;8.00;1.98;;;2.30;99.90;;;;;;5019112;28;20076;-61
2023/03/08 08:45:20;;;;;;;3.67;1.70;;;3.50;99.90;;;;;;5008055;28;20038;-61
2023/03/08 08:47:46;;;;;;;4.03;1.67;;;2.50;99.90;;;;;;5010785;28;20113;-61
2023/03/08 08:50:11;;;;;;;4.35;1.75;;;3.90;99.90;;;;;;5008137;28;20425;-61
2023/03/08 08:52:37;;;;;;;3.28;2.00;;;3.30;99.90;;;;;;5021672;28;20034;-61
2023/03/08 08:55:03;;;;;;;7.72;1.80;;;3.80;99.90;;;;;;5007724;28;20041;-61
2023/03/08 08:57:28;;;;;;;5.60;2.20;;;3.00;99.90;;;;;;5006762;28;20096;-61
2023/03/08 08:59:54;;;;;;;5.05;1.73;;;3.80;99.90;;;;;;5005463;28;20053;-61
2023/03/08 09:02:20;;;;;;;4.97;1.83;;;3.30;99.90;;;;;;5006997;28;20044;-61
2023/03/08 09:04:45;;;;;;;4.72;1.63;;;3.30;99.90;;;;;;5008564;28;20160;-61
2023/03/08 09:07:11;;;;;;;7.13;1.65;;;4.00;99.90;;;;;;5006629;28;20076;-61
2023/03/08 09:09:36;;;;;;;4.22;1.67;;;3.50;64.50;;;;;;5006846;28;20081;-61
2023/03/08 09:12:02;;;;;;;4.05;1.80;;;4.00;17.80;;;;;;5006988;28;20121;-61
2023/03/08 09:14:28;;;;;;;4.72;1.52;;;3.50;1.00;;;;;;5006237;28;20100;-61
2023/03/08 09:16:53;;;;;;;8.55;1.90;;;4.30;1.00;;;;;;5007546;28;20483;-61
2023/03/08 09:19:19;;;;;;;2.95;1.48;;;4.30;1.00;;;;;;5004071;28;20082;-61
2023/03/08 09:21:45;;;;;;;5.13;1.45;;;4.30;1.00;;;;;;5008569;28;20104;-61
2023/03/08 09:24:12;;;;;;;3.95;1.13;;;3.90;1.00;;;;;;5008610;28;20488;-61
2023/03/08 09:26:37;;;;;;;5.60;1.30;;;4.50;1.00;;;;;;5012385;28;20126;-61
2023/03/08 09:29:04;;;;;;;4.93;1.23;;;4.10;99.90;;;;;;5012051;28;20037;-63
2023/03/08 09:31:30;;;;;;;6.40;1.58;;;4.40;99.90;;;;;;5011813;28;20037;-62
2023/03/08 09:33:56;;;;;;;5.80;1.50;;;4.50;99.90;;;;;;5009294;28;20120;-61
2023/03/08 09:36:22;;;;;;;4.00;1.25;;;4.10;99.90;;;;;;5013389;28;20138;-61
2023/03/08 09:38:49;;;;;;;4.72;1.50;;;4.50;84.70;;;;;;5028212;28;20112;-61
2023/03/08 09:41:49;;;;;;;9.48;1.90;;;4.50;17.30;;;;;;5013559;28;20038;-61
2023/03/08 09:45:02;;;;;;;9.88;1.77;;;4.30;1.00;;;;;;5006683;28;20052;-61
2023/03/08 09:47:49;;;;;;;7.07;1.60;;;4.80;1.00;;;;;;4985854;28;20034;-61
2023/03/08 09:50:29;;;;;;;6.70;1.60;;;4.70;1.00;;;;;;5008667;28;20057;-61
2023/03/08 09:53:02;;;;;;;5.38;2.00;;;5.10;1.00;;;;;;5010998;28;20519;-61
2023/03/08 09:55:33;;;;;;;4.82;1.33;;;5.10;1.00;;;;;;5010551;28;20495;-61
2023/03/08 09:58:32;;;;;;;4.15;1.23;;;5.00;99.90;;;;;;5009458;28;20535;-61
2023/03/08 10:01:13;;;;;;;9.15;2.00;;;5.30;99.90;;;;;;5008384;28;20038;-61
2023/03/08 10:04:11;;;;;;;6.10;1.67;;;5.20;99.90;;;;;;5007520;28;20057;-61
2023/03/08 10:06:58;;;;;;;3.17;1.30;;;5.20;99.90;;;;;;4993605;28;20069;-61
2023/03/08 10:09:34;;;;;;;5.97;1.42;;;5.10;39.00;;;;;;4996010;28;20432;-61
2023/03/08 10:12:21;;;;;;;5.72;1.70;;;5.30;1.00;;;;;;5012820;28;20088;-61
2023/03/08 10:14:53;;;;;;;5.72;1.55;;;5.00;1.00;;;;;;5011793;28;20042;-61
2023/03/08 10:17:23;;;;;;;7.05;1.33;;;5.10;1.00;;;;;;5013635;28;20038;-61
2023/03/08 10:19:58;;;;;;;7.60;1.52;;;5.10;1.00;;;;;;5028292;28;20054;-61
2023/03/08 10:22:33;;;;;;;4.05;1.30;;;5.30;1.00;;;;;;5011641;28;20042;-61
2023/03/08 10:25:32;;;;;;;2.75;1.27;;;5.30;99.90;;;;;;5012414;28;20185;-61
2023/03/08 10:28:00;;;;;;;11.02;1.52;;;5.30;99.90;;;;;;5011804;28;20503;-61
2023/03/08 10:30:32;;;;;;;7.35;1.58;;;5.50;99.90;;;;;;5011961;28;20060;-61
2023/03/08 10:33:11;;;;;;;8.43;2.28;;;5.40;99.90;;;;;;5025762;28;20042;-61
2023/03/08 10:36:11;;;;;;;6.63;1.70;;;5.40;99.90;;;;;;5011707;28;20049;-61
2023/03/08 10:38:37;;;;;;;6.93;1.90;;;5.50;99.90;;;;;;5009955;28;20057;-61
2023/03/08 10:41:03;;;;;;;4.80;1.92;;;5.30;99.90;;;;;;5012574;28;20097;-61
2023/03/08 10:43:50;;;;;;;5.45;1.60;;;5.40;99.90;;;;;;5028171;28;20073;-61
2023/03/08 10:46:19;;;;;;;4.50;1.55;;;5.40;99.90;;;;;;5011456;28;20080;-61
2023/03/08 10:48:45;;;;;;;5.97;1.63;;;5.40;99.90;;;;;;5009343;28;20091;-61
2023/03/08 10:51:20;;;;;;;5.85;1.65;;;5.30;99.90;;;;;;5008623;28;20411;-61
2023/03/08 10:54:01;;;;;;;8.20;1.60;;;5.20;99.90;;;;;;5012675;28;20046;-61
2023/03/08 10:56:30;;;;;;;9.30;1.95;;;5.20;99.90;;;;;;5012000;28;20123;-61
2023/03/08 10:58:56;;;;;;;6.70;1.50;;;5.40;99.90;;;;;;5012425;28;20038;-62
2023/03/08 11:01:34;;;;;;;2.83;1.40;;;5.60;99.90;;;;;;5011989;28;20038;-61
2023/03/08 11:04:11;;;;;;;6.43;1.80;;;5.60;99.90;;;;;;5011490;28;20038;-61
2023/03/08 11:06:37;;;;;;;5.28;2.20;;;5.60;99.90;;;;;;5011782;28;20057;-61
2023/03/08 11:09:17;;;;;;;5.70;1.80;;;6.10;99.90;;;;;;5010425;28;20400;-61
2023/03/08 11:11:43;;;;;;;6.70;1.55;;;5.70;99.90;;;;;;5011760;28;20065;-61
2023/03/08 11:14:10;;;;;;;7.28;1.75;;;5.80;99.90;;;;;;5012096;28;20708;-61
2023/03/08 11:17:00;;;;;;;3.58;1.20;;;5.70;99.90;;;;;;5018429;28;20052;-61
2023/03/08 11:20:06;;;;;;;7.60;1.80;;;5.60;99.90;;;;;;5011191;28;20058;-61
2023/03/08 11:22:37;;;;;;;4.60;1.40;;;5.70;99.90;;;;;;5011196;28;20046;-61
2023/03/08 11:25:27;;;;;;;8.63;1.90;;;5.80;99.90;;;;;;5011607;28;20481;-61
2023/03/08 11:28:26;;;;;;;6.05;1.48;;;5.80;99.90;;;;;;5012048;28;20458;-62
2023/03/08 11:31:14;;;;;;;5.47;1.50;;;5.60;93.00;;;;;;5011229;28;20037;-61
2023/03/08 11:33:58;;;;;;;7.82;1.45;;;5.70;83.00;;;;;;5011967;28;20041;-61
2023/03/08 11:36:29;;;;;;;3.97;1.30;;;5.80;78.20;;;;;;5012170;28;20038;-61
2023/03/08 11:39:21;;;;;;;5.53;2.28;;;5.90;68.90;;;;;;5010745;28;20046;-61
2023/03/08 11:42:05;;;;;;;3.38;1.50;;;5.90;54.90;;;;;;5010936;28;20092;-61
2023/03/08 11:45:11;;;;;;;6.95;2.05;;;6.00;49.80;;;;;;5011111;28;20037;-61
2023/03/08 11:48:09;;;;;;;5.82;1.80;;;6.10;46.50;;;;;;5011806;28;20062;-61
2023/03/08 11:50:41;;;;;;;5.22;1.95;;;5.80;28.70;;;;;;5010394;28;20125;-61
2023/03/08 11:53:38;;;;;;;9.48;2.08;;;5.70;22.80;;;;;;5011557;28;20034;-61
2023/03/08 11:56:33;;;;;;;10.40;1.70;;;5.70;20.40;;;;;;5011779;28;20041;-61
2023/03/08 11:59:25;;;;;;;5.60;1.90;;;5.80;18.90;;;;;;5009706;28;20297;-61
2023/03/08 12:02:05;;;;;;;6.93;2.65;;;5.90;17.30;;;;;;5011129;28;20046;-61
2023/03/08 12:04:54;;;;;;;3.63;1.60;;;6.00;12.60;;;;;;5011510;28;20081;-61
2023/03/08 12:07:35;;;;;;;4.97;1.70;;;6.00;5.40;;;;;;5010298;28;20038;-61
2023/03/08 12:10:17;;;;;;;5.93;1.80;;;6.10;10.50;;;;;;5011469;28;20237;-61
2023/03/08 12:13:00;;;;;;;6.30;2.38;;;6.10;11.30;;;;;;5011628;28;20096;-61
2023/03/08 12:15:56;;;;;;;30.13;3.03;;;6.20;11.50;;;;;;5010079;28;20082;-62
2023/03/08 12:18:33;;;;;;;5.53;1.77;;;6.20;9.70;;;;;;5010094;28;20064;-61
2023/03/08 12:21:36;;;;;;;7.03;1.90;;;6.20;6.20;;;;;;5009774;28;20093;-61
2023/03/08 12:24:14;;;;;;;5.63;1.90;;;6.00;1.00;;;;;;5009021;28;20542;-62
2023/03/08 12:26:47;;;;;;;5.75;1.80;;;6.20;1.00;;;;;;5010682;28;20041;-62
2023/03/08 12:29:30;;;;;;;7.18;1.90;;;6.20;1.00;;;;;;5026326;28;20116;-62
2023/03/08 12:31:57;;;;;;;9.98;2.53;;;6.30;1.00;;;;;;5010437;28;20463;-62
2023/03/08 12:34:28;;;;;;;8.88;2.30;;;6.40;1.00;;;;;;5010927;28;20037;-61
2023/03/08 12:36:54;;;;;;;5.35;1.20;;;6.50;1.00;;;;;;5010355;28;20045;-62
2023/03/08 12:39:30;;;;;;;11.35;3.17;;;6.50;1.00;;;;;;5011162;28;20514;-62
2023/03/08 12:42:12;;;;;;;6.25;1.50;;;6.40;1.00;;;;;;5001474;28;20066;-62
2023/03/08 12:44:38;;;;;;;7.57;1.92;;;6.30;1.00;;;;;;5012878;28;20049;-62
2023/03/08 12:47:12;;;;;;;4.90;1.40;;;6.20;1.00;;;;;;5010827;28;20038;-62
2023/03/08 12:49:43;;;;;;;5.43;1.50;;;6.20;1.00;;;;;;5011087;28;20049;-62
2023/03/08 12:52:17;;;;;;;5.53;1.75;;;6.20;1.00;;;;;;5007472;28;20046;-62
2023/03/08 12:54:59;;;;;;;3.80;1.65;;;6.20;1.00;;;;;;5010853;28;20073;-62
2023/03/08 12:57:29;;;;;;;7.65;1.75;;;6.10;1.00;;;;;;5026113;28;20188;-62
2023/03/08 13:00:22;;;;;;;4.38;1.80;;;6.20;1.00;;;;;;5013547;28;20496;-62
2023/03/08 13:03:12;;;;;;;4.28;1.58;;;6.10;1.00;;;;;;5005497;28;20132;-62
2023/03/08 13:05:40;;;;;;;6.45;1.50;;;6.10;1.00;;;;;;5014578;28;20084;-62
2023/03/08 13:08:11;;;;;;;5.45;1.63;;;6.10;1.00;;;;;;5014434;28;20049;-62
2023/03/08 13:10:57;;;;;;;8.27;1.50;;;6.20;1.00;;;;;;5010816;28;20045;-62
2023/03/08 13:13:30;;;;;;;3.75;1.20;;;6.20;1.00;;;;;;5013892;28;20164;-62
2023/03/08 13:16:14;;;;;;;4.18;1.98;;;5.80;1.00;;;;;;5011793;28;20038;-62